createdAt,value
2022-12-27T00:00:30.436Z,73678.31
2022-12-27T00:01:02.745Z,73676.31
2022-12-27T00:01:35.182Z,73676.31
2022-12-27T00:02:10.090Z,73686.31
2022-12-27T00:02:42.473Z,73684.31
2022-12-27T00:03:14.879Z,73684.31
2022-12-27T00:03:49.986Z,73680.31
2022-12-27T00:04:22.359Z,73686.31
2022-12-27T00:04:54.644Z,73682.31
2022-12-27T00:05:26.915Z,73684.31
2022-12-27T00:06:01.803Z,73692.28
2022-12-27T00:06:34.136Z,73684.31
2022-12-27T00:07:06.418Z,73686.31
2022-12-27T00:07:41.394Z,73688.31
2022-12-27T00:08:14.440Z,73686.31
2022-12-27T00:08:47.279Z,73692.28
2022-12-27T00:09:22.139Z,73684.31
2022-12-27T00:09:54.413Z,73688.31
2022-12-27T00:10:26.701Z,73688.31
2022-12-27T00:11:10.729Z,73692.28
2022-12-27T00:11:42.986Z,73688.31
2022-12-27T00:12:17.849Z,73696.28
2022-12-27T00:12:50.119Z,73698.28
2022-12-27T00:13:23.907Z,73684.31
2022-12-27T00:13:58.857Z,73688.31
2022-12-27T00:14:32.473Z,73692.28
2022-12-27T00:15:05.923Z,73688.31
2022-12-27T00:15:38.192Z,73698.28
2022-12-27T00:16:14.547Z,73696.28
2022-12-27T00:16:46.859Z,73692.28
2022-12-27T00:17:19.120Z,73700.28
2022-12-27T00:17:54.009Z,73692.28
2022-12-27T00:18:26.282Z,73696.28
2022-12-27T00:18:58.786Z,73700.28
2022-12-27T00:19:33.659Z,73696.28
2022-12-27T00:20:11.362Z,73700.28
2022-12-27T00:20:44.156Z,73704.28
2022-12-27T00:21:20.853Z,73700.28
2022-12-27T00:21:53.085Z,73694.28
2022-12-27T00:22:25.393Z,73704.28
2022-12-27T00:23:02.802Z,73708.25
2022-12-27T00:23:37.541Z,73710.25
2022-12-27T00:24:10.627Z,73712.25
2022-12-27T00:24:45.439Z,73704.28
2022-12-27T00:25:17.777Z,73714.25
2022-12-27T00:25:50.055Z,73708.25
2022-12-27T00:26:29.022Z,73712.25
2022-12-27T00:27:01.492Z,73714.25
2022-12-27T00:27:33.747Z,73712.25
2022-12-27T00:28:09.502Z,73712.25
2022-12-27T00:28:41.763Z,73712.25
2022-12-27T00:29:14.012Z,73716.25
2022-12-27T00:29:50.477Z,73722.25
2022-12-27T00:30:22.945Z,73724.22
2022-12-27T00:30:55.586Z,73724.22
2022-12-27T00:31:32.507Z,73724.22
2022-12-27T00:32:05.292Z,73722.25
2022-12-27T00:32:37.527Z,73724.22
2022-12-27T00:33:12.437Z,73728.22
2022-12-27T00:33:46.279Z,73732.22
2022-12-27T00:34:18.535Z,73732.22
2022-12-27T00:34:53.363Z,73728.22
2022-12-27T00:35:25.583Z,73736.22
2022-12-27T00:35:59.279Z,73734.22
2022-12-27T00:36:32.378Z,73732.22
2022-12-27T00:37:07.260Z,73732.22
2022-12-27T00:37:39.495Z,73736.22
2022-12-27T00:38:11.732Z,73736.22
2022-12-27T00:38:46.933Z,73738.22
2022-12-27T00:39:19.190Z,73740.22
2022-12-27T00:39:51.415Z,73738.22
2022-12-27T00:40:26.228Z,73732.22
2022-12-27T00:40:59.186Z,73736.22
2022-12-27T00:41:34.255Z,73748.19
2022-12-27T00:42:09.173Z,73746.19
2022-12-27T00:42:41.395Z,73740.22
2022-12-27T00:43:13.643Z,73734.22
2022-12-27T00:43:48.574Z,73740.22
2022-12-27T00:44:20.816Z,73748.19
2022-12-27T00:44:53.062Z,73740.22
2022-12-27T00:45:27.884Z,73742.19
2022-12-27T00:46:00.385Z,73748.19
2022-12-27T00:46:32.700Z,73748.19
2022-12-27T00:47:09.441Z,73748.19
2022-12-27T00:47:41.689Z,73752.19
2022-12-27T00:48:14.009Z,73756.19
2022-12-27T00:48:46.441Z,73752.19
2022-12-27T00:49:21.333Z,73758.19
2022-12-27T00:49:53.576Z,73754.19
2022-12-27T00:50:26.127Z,73752.19
2022-12-27T00:51:02.596Z,73752.19
2022-12-27T00:51:37.655Z,73756.19
2022-12-27T00:52:09.895Z,73760.16
2022-12-27T00:52:44.725Z,73756.19
2022-12-27T00:53:17.450Z,73762.16
2022-12-27T00:53:50.378Z,73760.16
2022-12-27T00:54:25.195Z,73764.16
2022-12-27T00:54:57.434Z,73764.16
2022-12-27T00:55:29.668Z,73762.16
2022-12-27T00:56:04.636Z,73754.19
2022-12-27T00:56:39.474Z,73754.19
2022-12-27T00:57:11.707Z,73756.19
2022-12-27T00:57:46.593Z,73758.19
2022-12-27T00:58:18.867Z,73760.16
2022-12-27T00:58:53.474Z,73760.16
2022-12-27T00:59:28.384Z,73752.19
2022-12-27T01:00:04.678Z,73756.19
2022-12-27T01:00:40.729Z,73760.16
2022-12-27T01:01:20.603Z,73768.16
2022-12-27T01:01:53.411Z,73760.16
2022-12-27T01:02:26.210Z,73768.16
2022-12-27T01:03:01.031Z,73764.16
2022-12-27T01:03:34.535Z,73768.16
2022-12-27T01:04:07.015Z,73774.16
2022-12-27T01:04:41.867Z,73772.16
2022-12-27T01:05:14.498Z,73772.16
2022-12-27T01:05:46.863Z,73782.13
2022-12-27T01:06:20.516Z,73780.13
2022-12-27T01:06:55.351Z,73782.13
2022-12-27T01:07:27.859Z,73780.13
2022-12-27T01:08:00.114Z,73780.13
2022-12-27T01:08:32.338Z,73782.13
2022-12-27T01:09:08.705Z,73786.13
2022-12-27T01:09:40.973Z,73778.13
2022-12-27T01:10:13.200Z,73782.13
2022-12-27T01:10:48.029Z,73788.13
2022-12-27T01:11:20.297Z,73784.13
2022-12-27T01:11:55.116Z,73784.13
2022-12-27T01:12:30.426Z,73792.13
2022-12-27T01:13:03.598Z,73782.13
2022-12-27T01:13:35.903Z,73788.13
2022-12-27T01:14:08.175Z,73790.13
2022-12-27T01:14:43.053Z,73790.13
2022-12-27T01:15:15.308Z,73786.13
2022-12-27T01:15:47.586Z,73788.13
2022-12-27T01:16:24.022Z,73788.13
2022-12-27T01:16:58.940Z,73780.13
2022-12-27T01:17:31.194Z,73792.13
2022-12-27T01:18:03.445Z,73788.13
2022-12-27T01:18:38.316Z,73788.13
2022-12-27T01:19:10.581Z,73792.13
2022-12-27T01:19:43.036Z,73788.13
2022-12-27T01:20:15.404Z,73796.09
2022-12-27T01:20:50.272Z,73790.13
2022-12-27T01:21:25.009Z,73794.13
2022-12-27T01:21:59.863Z,73796.09
2022-12-27T01:22:32.079Z,73800.09
2022-12-27T01:23:04.331Z,73790.13
2022-12-27T01:23:40.311Z,73800.09
2022-12-27T01:24:12.604Z,73796.09
2022-12-27T01:24:45.036Z,73800.09
2022-12-27T01:25:20.058Z,73796.09
2022-12-27T01:25:59.902Z,73802.09
2022-12-27T01:26:32.152Z,73804.09
2022-12-27T01:27:09.584Z,73808.09
2022-12-27T01:27:41.797Z,73810.09
2022-12-27T01:28:14.014Z,73808.09
2022-12-27T01:28:46.702Z,73806.09
2022-12-27T01:29:21.551Z,73808.09
2022-12-27T01:29:54.161Z,73820.06
2022-12-27T01:30:26.851Z,73816.06
2022-12-27T01:30:59.167Z,73816.06
2022-12-27T01:31:33.992Z,73812.09
2022-12-27T01:32:06.521Z,73804.09
2022-12-27T01:32:38.812Z,73816.06
2022-12-27T01:33:11.045Z,73824.06
2022-12-27T01:33:46.423Z,73816.06
2022-12-27T01:34:19.284Z,73832.03
2022-12-27T01:34:51.559Z,73824.06
2022-12-27T01:35:26.579Z,73832.03
2022-12-27T01:35:58.819Z,73832.03
2022-12-27T01:36:31.783Z,73840.03
2022-12-27T01:37:07.114Z,73836.03
2022-12-27T01:37:39.342Z,73834.03
2022-12-27T01:38:11.582Z,73836.03
2022-12-27T01:38:48.155Z,73836.03
2022-12-27T01:39:20.568Z,73834.03
2022-12-27T01:39:52.797Z,73840.03
2022-12-27T01:40:25.724Z,73844.03
2022-12-27T01:41:00.561Z,73844.03
2022-12-27T01:41:49.303Z,73848.03
2022-12-27T01:42:39.138Z,73848.03
2022-12-27T01:43:16.958Z,73848.03
2022-12-27T01:43:49.225Z,73838.03
2022-12-27T01:44:55.869Z,73852.00
2022-12-27T01:45:32.257Z,73854.00
2022-12-27T01:46:04.830Z,73852.00
2022-12-27T01:46:37.063Z,73860.00
2022-12-27T01:47:16.177Z,73856.00
2022-12-27T01:47:57.310Z,73856.00
2022-12-27T01:48:29.533Z,73856.00
2022-12-27T01:49:05.098Z,73856.00
2022-12-27T01:49:37.799Z,73848.03
2022-12-27T01:50:20.798Z,73856.00
2022-12-27T01:50:54.839Z,73858.00
2022-12-27T01:51:27.128Z,73856.00
2022-12-27T01:52:02.077Z,73860.00
2022-12-27T01:52:37.757Z,73864.00
2022-12-27T01:53:13.748Z,73860.00
2022-12-27T01:53:51.268Z,73860.00
2022-12-27T01:54:23.674Z,73864.00
2022-12-27T01:54:58.960Z,73864.00
2022-12-27T01:55:38.545Z,73869.97
2022-12-27T01:56:14.800Z,73867.97
2022-12-27T01:56:47.254Z,73867.97
2022-12-27T01:57:19.519Z,73864.00
2022-12-27T01:57:59.566Z,73867.97
2022-12-27T01:58:36.166Z,73867.97
2022-12-27T01:59:12.530Z,73873.97
2022-12-27T01:59:44.955Z,73867.97
2022-12-27T02:00:17.320Z,73879.97
2022-12-27T02:00:52.908Z,73879.97
2022-12-27T02:01:28.705Z,73881.97
2022-12-27T02:02:01.539Z,73871.97
2022-12-27T02:02:36.781Z,73887.94
2022-12-27T02:03:09.168Z,73881.97
2022-12-27T02:03:44.624Z,73883.94
2022-12-27T02:04:23.198Z,73883.94
2022-12-27T02:04:55.524Z,73883.94
2022-12-27T02:05:27.989Z,73881.97
2022-12-27T02:06:04.451Z,73885.94
2022-12-27T02:06:37.872Z,73887.94
2022-12-27T02:07:10.178Z,73881.97
2022-12-27T02:07:49.436Z,73887.94
2022-12-27T02:08:33.162Z,73891.94
2022-12-27T02:09:09.667Z,73891.94
2022-12-27T02:09:45.079Z,73895.94
2022-12-27T02:10:20.272Z,73895.94
2022-12-27T02:10:52.987Z,73895.94
2022-12-27T02:11:42.563Z,73895.94
2022-12-27T02:12:15.597Z,73897.94
2022-12-27T02:12:50.576Z,73897.94
2022-12-27T02:13:25.655Z,73899.94
2022-12-27T02:13:57.917Z,73903.91
2022-12-27T02:14:34.965Z,73903.91
2022-12-27T02:15:08.176Z,73901.94
2022-12-27T02:15:40.401Z,73905.91
2022-12-27T02:16:19.217Z,73907.91
2022-12-27T02:16:52.390Z,73907.91
2022-12-27T02:17:26.639Z,73907.91
2022-12-27T02:18:01.680Z,73907.91
2022-12-27T02:18:33.963Z,73913.91
2022-12-27T02:19:09.543Z,73907.91
2022-12-27T02:19:52.889Z,73911.91
2022-12-27T02:20:27.209Z,73911.91
2022-12-27T02:21:28.791Z,73915.91
2022-12-27T02:22:31.038Z,73919.91
2022-12-27T02:23:53.987Z,73923.88
2022-12-27T02:24:55.347Z,73923.88
2022-12-27T02:25:42.689Z,73925.88
2022-12-27T02:26:31.639Z,73935.88
2022-12-27T02:27:09.829Z,73927.88
2022-12-27T02:27:49.891Z,73931.88
2022-12-27T02:28:41.856Z,73931.88
2022-12-27T02:29:41.661Z,73927.88
2022-12-27T02:30:13.977Z,73931.88
2022-12-27T02:30:48.499Z,73933.88
2022-12-27T02:31:27.448Z,73931.88
2022-12-27T02:32:04.464Z,73929.88
2022-12-27T02:32:43.373Z,73931.88
2022-12-27T02:33:19.747Z,73933.88
2022-12-27T02:33:52.904Z,73937.88
2022-12-27T02:34:28.117Z,73939.84
2022-12-27T02:35:10.311Z,73939.84
2022-12-27T02:35:45.543Z,73935.88
2022-12-27T02:36:20.995Z,73935.88
2022-12-27T02:36:56.891Z,73941.84
2022-12-27T02:37:34.704Z,73939.84
2022-12-27T02:38:10.399Z,73933.88
2022-12-27T02:38:45.323Z,73941.84
2022-12-27T02:39:20.897Z,73935.88
2022-12-27T02:39:53.850Z,73945.84
2022-12-27T02:40:41.951Z,73941.84
2022-12-27T02:41:29.324Z,73943.84
2022-12-27T02:42:17.331Z,73943.84
2022-12-27T02:43:05.139Z,73943.84
2022-12-27T02:43:52.381Z,73945.84
2022-12-27T02:44:42.194Z,73945.84
2022-12-27T02:45:35.427Z,73947.84
2022-12-27T02:46:28.258Z,73947.84
2022-12-27T02:47:15.487Z,73951.84
2022-12-27T02:48:03.288Z,73955.84
2022-12-27T02:48:50.557Z,73955.84
2022-12-27T02:49:39.892Z,73955.84
2022-12-27T02:50:28.004Z,73959.81
2022-12-27T02:51:24.363Z,73965.81
2022-12-27T02:52:18.235Z,73961.81
2022-12-27T02:53:09.233Z,73963.81
2022-12-27T02:53:48.403Z,73967.81
2022-12-27T02:54:35.724Z,73967.81
2022-12-27T02:55:28.245Z,73971.81
2022-12-27T02:56:24.185Z,73971.81
2022-12-27T02:57:11.092Z,73977.78
2022-12-27T02:57:49.964Z,73979.78
2022-12-27T02:58:41.098Z,73965.81
2022-12-27T02:59:32.288Z,73973.81
2022-12-27T03:00:25.842Z,73971.81
2022-12-27T03:01:29.228Z,73975.78
2022-12-27T03:02:25.813Z,73983.78
2022-12-27T03:03:21.782Z,73983.78
2022-12-27T03:04:07.587Z,73983.78
2022-12-27T03:04:57.871Z,73987.78
2022-12-27T03:05:38.506Z,73993.75
2022-12-27T03:06:41.903Z,73991.78
2022-12-27T03:07:28.807Z,73995.75
2022-12-27T03:08:04.883Z,73991.78
2022-12-27T03:08:42.943Z,73995.75
2022-12-27T03:09:58.701Z,73999.75
2022-12-27T03:10:49.761Z,73999.75
2022-12-27T03:11:37.590Z,74003.75
2022-12-27T03:12:29.051Z,74001.75
2022-12-27T03:13:26.380Z,74003.75
2022-12-27T03:14:31.637Z,74003.75
2022-12-27T03:15:30.376Z,74003.75
2022-12-27T03:16:23.606Z,74011.72
2022-12-27T03:17:00.469Z,74017.72
2022-12-27T03:17:37.605Z,74015.72
2022-12-27T03:18:14.511Z,74019.72
2022-12-27T03:19:09.382Z,74027.72
2022-12-27T03:20:00.230Z,74035.69
2022-12-27T03:20:48.023Z,74029.72
2022-12-27T03:21:38.510Z,74031.69
2022-12-27T03:22:26.764Z,74037.69
2022-12-27T03:23:29.083Z,74043.69
2022-12-27T03:24:17.134Z,74043.69
2022-12-27T03:25:04.428Z,74049.66
2022-12-27T03:25:39.838Z,74047.66
2022-12-27T03:26:13.843Z,74051.66
2022-12-27T03:26:47.736Z,74051.66
2022-12-27T03:27:28.696Z,74051.66
2022-12-27T03:28:18.509Z,74051.66
2022-12-27T03:29:06.295Z,74055.66
2022-12-27T03:29:53.715Z,74059.66
2022-12-27T03:30:43.702Z,74059.66
2022-12-27T03:31:33.162Z,74059.66
2022-12-27T03:32:24.500Z,74063.66
2022-12-27T03:33:14.639Z,74067.63
2022-12-27T03:33:50.402Z,74067.63
2022-12-27T03:34:32.094Z,74071.63
2022-12-27T03:35:10.003Z,74067.63
2022-12-27T03:36:06.869Z,74071.63
2022-12-27T03:36:54.185Z,74067.63
2022-12-27T03:37:43.484Z,74067.63
2022-12-27T03:38:15.730Z,74077.63
2022-12-27T03:38:51.769Z,74071.63
2022-12-27T03:39:28.132Z,74081.63
2022-12-27T03:40:05.716Z,74079.63
2022-12-27T03:41:08.835Z,74079.63
2022-12-27T03:42:00.456Z,74083.63
2022-12-27T03:42:51.558Z,74083.63
2022-12-27T03:43:23.878Z,74091.59
2022-12-27T03:43:56.174Z,74085.59
2022-12-27T03:44:28.505Z,74083.63
2022-12-27T03:45:00.726Z,74089.59
2022-12-27T03:45:58.581Z,74087.59
2022-12-27T03:46:39.043Z,74083.63
2022-12-27T03:47:17.136Z,74087.59
2022-12-27T03:47:53.718Z,74099.59
2022-12-27T03:48:27.022Z,74083.63
2022-12-27T03:49:09.460Z,74081.63
2022-12-27T03:49:48.133Z,74085.59
2022-12-27T03:50:23.525Z,74083.63
2022-12-27T03:51:05.100Z,74091.59
2022-12-27T03:51:39.212Z,74083.63
2022-12-27T03:52:18.799Z,74091.59
2022-12-27T03:52:55.039Z,74083.63
2022-12-27T03:53:31.777Z,74087.59
2022-12-27T03:54:10.426Z,74083.63
2022-12-27T03:54:44.348Z,74079.63
2022-12-27T03:55:17.277Z,74091.59
2022-12-27T03:55:52.420Z,74083.63
2022-12-27T03:56:24.867Z,74095.59
2022-12-27T03:56:59.651Z,74083.63
2022-12-27T03:57:34.730Z,74091.59
2022-12-27T03:58:06.945Z,74097.59
2022-12-27T03:58:39.232Z,74091.59
2022-12-27T03:59:12.894Z,74091.59
2022-12-27T03:59:47.952Z,74087.59
2022-12-27T04:00:20.379Z,74097.59
2022-12-27T04:00:55.193Z,74091.59
2022-12-27T04:01:30.094Z,74099.59
2022-12-27T04:02:02.810Z,74101.59
2022-12-27T04:02:37.843Z,74103.56
2022-12-27T04:03:10.175Z,74101.59
2022-12-27T04:03:42.879Z,74111.56
2022-12-27T04:04:17.702Z,74103.56
2022-12-27T04:04:50.222Z,74105.56
2022-12-27T04:05:23.626Z,74107.56
2022-12-27T04:05:55.854Z,74107.56
2022-12-27T04:06:30.690Z,74099.59
2022-12-27T04:07:03.127Z,74115.56
2022-12-27T04:07:35.671Z,74115.56
2022-12-27T04:08:22.902Z,74113.56
2022-12-27T04:09:10.117Z,74115.56
2022-12-27T04:09:57.796Z,74107.56
2022-12-27T04:10:45.009Z,74115.56
2022-12-27T04:11:32.231Z,74107.56
2022-12-27T04:12:20.256Z,74113.56
2022-12-27T04:13:07.494Z,74113.56
2022-12-27T04:13:54.719Z,74107.56
2022-12-27T04:14:41.955Z,74107.56
2022-12-27T04:15:29.194Z,74115.56
2022-12-27T04:16:19.390Z,74115.56
2022-12-27T04:17:06.680Z,74111.56
2022-12-27T04:17:53.943Z,74115.56
2022-12-27T04:18:41.174Z,74121.56
2022-12-27T04:19:28.385Z,74119.56
2022-12-27T04:20:15.601Z,74123.53
2022-12-27T04:21:02.820Z,74121.56
2022-12-27T04:21:50.049Z,74119.56
2022-12-27T04:22:37.294Z,74127.53
2022-12-27T04:23:24.672Z,74123.53
2022-12-27T04:24:11.874Z,74127.53
2022-12-27T04:24:59.099Z,74117.56
2022-12-27T04:25:46.331Z,74123.53
2022-12-27T04:26:33.581Z,74121.56
2022-12-27T04:27:20.813Z,74123.53
2022-12-27T04:28:08.063Z,74125.53
2022-12-27T04:28:57.750Z,74127.53
2022-12-27T04:29:45.043Z,74127.53
2022-12-27T04:30:32.354Z,74133.53
2022-12-27T04:31:22.227Z,74133.53
2022-12-27T04:32:10.306Z,74135.53
2022-12-27T04:32:57.524Z,74135.53
2022-12-27T04:33:44.736Z,74139.53
2022-12-27T04:34:31.980Z,74145.50
2022-12-27T04:35:08.161Z,74143.50
2022-12-27T04:35:40.390Z,74143.50
2022-12-27T04:36:12.884Z,74143.50
2022-12-27T04:36:45.166Z,74143.50
2022-12-27T04:37:21.624Z,74143.50
2022-12-27T04:37:53.839Z,74143.50
2022-12-27T04:38:26.067Z,74151.50
2022-12-27T04:39:00.887Z,74143.50
2022-12-27T04:39:33.325Z,74147.50
2022-12-27T04:40:21.925Z,74149.50
2022-12-27T04:41:09.142Z,74139.53
2022-12-27T04:41:56.467Z,74141.50
2022-12-27T04:42:43.707Z,74143.50
2022-12-27T04:43:30.929Z,74145.50
2022-12-27T04:44:18.178Z,74145.50
2022-12-27T04:45:08.919Z,74145.50
2022-12-27T04:45:59.023Z,74149.50
2022-12-27T04:46:48.918Z,74147.50
2022-12-27T04:47:37.231Z,74143.50
2022-12-27T04:48:26.980Z,74141.50
2022-12-27T04:49:14.195Z,74139.53
2022-12-27T04:50:01.475Z,74139.53
2022-12-27T04:50:48.748Z,74139.53
2022-12-27T04:51:35.967Z,74131.53
2022-12-27T04:52:27.943Z,74139.53
2022-12-27T04:53:15.183Z,74139.53
2022-12-27T04:54:02.393Z,74131.53
2022-12-27T04:54:49.603Z,74133.53
2022-12-27T04:55:26.728Z,74135.53
2022-12-27T04:55:59.104Z,74137.53
2022-12-27T04:56:31.399Z,74143.50
2022-12-27T04:57:03.893Z,74135.53
2022-12-27T04:57:39.377Z,74135.53
2022-12-27T04:58:11.610Z,74143.50
2022-12-27T04:59:04.301Z,74147.50
2022-12-27T04:59:51.541Z,74147.50
2022-12-27T05:00:41.740Z,74143.50
2022-12-27T05:01:29.068Z,74147.50
2022-12-27T05:02:04.167Z,74143.50
2022-12-27T05:02:39.326Z,74149.50
2022-12-27T05:03:13.514Z,74147.50
2022-12-27T05:03:46.692Z,74157.50
2022-12-27T05:04:19.061Z,74153.50
2022-12-27T05:04:54.007Z,74149.50
2022-12-27T05:05:26.297Z,74147.50
2022-12-27T05:05:58.640Z,74149.50
2022-12-27T05:06:33.470Z,74149.50
2022-12-27T05:07:21.368Z,74147.50
2022-12-27T05:08:08.933Z,74153.50
2022-12-27T05:08:56.389Z,74151.50
2022-12-27T05:09:43.800Z,74151.50
2022-12-27T05:10:31.156Z,74151.50
2022-12-27T05:11:18.450Z,74151.50
2022-12-27T05:12:14.836Z,74151.50
2022-12-27T05:13:02.061Z,74159.47
2022-12-27T05:13:49.259Z,74151.50
2022-12-27T05:14:24.103Z,74155.50
2022-12-27T05:14:56.354Z,74155.50
2022-12-27T05:15:28.639Z,74159.47
2022-12-27T05:16:00.974Z,74163.47
2022-12-27T05:16:38.739Z,74157.50
2022-12-27T05:17:13.813Z,74163.47
2022-12-27T05:17:46.081Z,74167.47
2022-12-27T05:18:18.303Z,74159.47
2022-12-27T05:18:53.155Z,74167.47
2022-12-27T05:19:25.417Z,74159.47
2022-12-27T05:19:57.639Z,74165.47
2022-12-27T05:20:32.676Z,74167.47
2022-12-27T05:21:06.745Z,74167.47
2022-12-27T05:22:03.074Z,74163.47
2022-12-27T05:22:50.475Z,74167.47
2022-12-27T05:23:43.529Z,74171.47
2022-12-27T05:24:30.744Z,74179.44
2022-12-27T05:25:18.032Z,74175.47
2022-12-27T05:25:50.274Z,74179.44
2022-12-27T05:26:23.616Z,74177.47
2022-12-27T05:26:58.952Z,74179.44
2022-12-27T05:27:31.432Z,74177.47
2022-12-27T05:28:04.993Z,74179.44
2022-12-27T05:28:37.235Z,74177.47
2022-12-27T05:29:12.053Z,74183.44
2022-12-27T05:29:44.295Z,74179.44
2022-12-27T05:30:16.696Z,74185.44
2022-12-27T05:30:49.011Z,74183.44
2022-12-27T05:31:25.737Z,74191.44
2022-12-27T05:31:58.326Z,74179.44
2022-12-27T05:32:33.149Z,74185.44
2022-12-27T05:33:08.360Z,74183.44
2022-12-27T05:33:40.690Z,74187.44
2022-12-27T05:34:12.910Z,74185.44
2022-12-27T05:34:47.733Z,74187.44
2022-12-27T05:35:19.966Z,74183.44
2022-12-27T05:35:52.214Z,74189.44
2022-12-27T05:36:24.822Z,74191.44
2022-12-27T05:36:59.640Z,74195.44
2022-12-27T05:37:31.868Z,74199.41
2022-12-27T05:38:04.607Z,74197.41
2022-12-27T05:38:39.457Z,74191.44
2022-12-27T05:39:11.716Z,74195.44
2022-12-27T05:39:44.287Z,74197.41
2022-12-27T05:40:16.658Z,74195.44
2022-12-27T05:40:51.509Z,74195.44
2022-12-27T05:41:23.718Z,74191.44
2022-12-27T05:41:55.956Z,74193.44
2022-12-27T05:42:30.772Z,74191.44
2022-12-27T05:43:03.813Z,74191.44
2022-12-27T05:43:39.011Z,74191.44
2022-12-27T05:44:11.263Z,74195.44
2022-12-27T05:44:43.526Z,74189.44
2022-12-27T05:45:15.938Z,74191.44
2022-12-27T05:45:50.760Z,74195.44
2022-12-27T05:46:23.337Z,74195.44
2022-12-27T05:46:58.687Z,74201.41
2022-12-27T05:47:33.556Z,74199.41
2022-12-27T05:48:06.434Z,74203.41
2022-12-27T05:48:41.292Z,74207.41
2022-12-27T05:49:14.670Z,74199.41
2022-12-27T05:49:46.892Z,74197.41
2022-12-27T05:50:21.747Z,74203.41
2022-12-27T05:50:55.880Z,74203.41
2022-12-27T05:51:31.435Z,74205.41
2022-12-27T05:52:03.902Z,74203.41
2022-12-27T05:52:40.977Z,74203.41
2022-12-27T05:53:13.781Z,74207.41
2022-12-27T05:53:49.501Z,74199.41
2022-12-27T05:54:21.799Z,74203.41
2022-12-27T05:54:54.012Z,74203.41
2022-12-27T05:55:26.237Z,74203.41
2022-12-27T05:56:01.681Z,74207.41
2022-12-27T05:56:37.307Z,74207.41
2022-12-27T05:57:09.559Z,74207.41
2022-12-27T05:57:44.372Z,74205.41
2022-12-27T05:58:16.610Z,74205.41
2022-12-27T05:58:51.614Z,74215.41
2022-12-27T05:59:23.844Z,74207.41
2022-12-27T05:59:56.070Z,74207.41
2022-12-27T06:00:30.936Z,74207.41
2022-12-27T06:01:08.678Z,74209.41
2022-12-27T06:01:41.061Z,74203.41
2022-12-27T06:02:16.121Z,74205.41
2022-12-27T06:02:51.956Z,74211.41
2022-12-27T06:03:24.418Z,74211.41
2022-12-27T06:03:59.682Z,74209.41
2022-12-27T06:04:31.959Z,74211.41
2022-12-27T06:05:04.603Z,74213.41
2022-12-27T06:05:39.486Z,74209.41
2022-12-27T06:06:12.257Z,74215.41
2022-12-27T06:06:44.535Z,74219.38
2022-12-27T06:07:19.420Z,74215.41
2022-12-27T06:07:51.648Z,74211.41
2022-12-27T06:08:23.859Z,74211.41
2022-12-27T06:08:58.701Z,74215.41
2022-12-27T06:09:30.937Z,74213.41
2022-12-27T06:10:03.371Z,74215.41
2022-12-27T06:10:38.239Z,74213.41
2022-12-27T06:11:12.614Z,74215.41
2022-12-27T06:11:47.451Z,74215.41
2022-12-27T06:12:19.691Z,74215.41
2022-12-27T06:12:51.928Z,74215.41
2022-12-27T06:13:24.168Z,74211.41
2022-12-27T06:13:58.991Z,74213.41
2022-12-27T06:14:31.290Z,74215.41
2022-12-27T06:15:04.320Z,74211.41
2022-12-27T06:15:39.746Z,74209.41
2022-12-27T06:16:13.227Z,74211.41
2022-12-27T06:16:45.574Z,74211.41
2022-12-27T06:17:20.448Z,74207.41
2022-12-27T06:17:55.325Z,74207.41
2022-12-27T06:18:29.437Z,74209.41
2022-12-27T06:19:04.246Z,74203.41
2022-12-27T06:19:37.138Z,74203.41
2022-12-27T06:20:11.053Z,74207.41
2022-12-27T06:20:43.316Z,74209.41
2022-12-27T06:21:20.010Z,74203.41
2022-12-27T06:21:52.237Z,74207.41
2022-12-27T06:22:24.541Z,74203.41
2022-12-27T06:23:01.715Z,74205.41
2022-12-27T06:23:35.197Z,74207.41
2022-12-27T06:24:08.491Z,74203.41
2022-12-27T06:24:43.318Z,74207.41
2022-12-27T06:25:15.721Z,74203.41
2022-12-27T06:25:48.009Z,74209.41
2022-12-27T06:26:24.660Z,74207.41
2022-12-27T06:26:56.958Z,74209.41
2022-12-27T06:27:29.236Z,74215.41
2022-12-27T06:28:04.059Z,74207.41
2022-12-27T06:28:36.351Z,74209.41
2022-12-27T06:29:11.851Z,74211.41
2022-12-27T06:29:44.077Z,74211.41
2022-12-27T06:30:19.315Z,74211.41
2022-12-27T06:30:51.593Z,74215.41
2022-12-27T06:31:24.761Z,74219.38
2022-12-27T06:31:59.698Z,74215.41
2022-12-27T06:32:32.347Z,74219.38
2022-12-27T06:33:07.330Z,74215.41
2022-12-27T06:33:42.175Z,74219.38
2022-12-27T06:34:14.434Z,74217.38
2022-12-27T06:34:46.661Z,74209.41
2022-12-27T06:35:21.571Z,74215.41
2022-12-27T06:35:53.875Z,74215.41
2022-12-27T06:36:27.684Z,74215.41
2022-12-27T06:37:02.685Z,74215.41
2022-12-27T06:37:34.908Z,74221.38
2022-12-27T06:38:07.237Z,74217.38
2022-12-27T06:38:42.135Z,74211.41
2022-12-27T06:39:14.551Z,74215.41
2022-12-27T06:39:47.251Z,74217.38
2022-12-27T06:40:22.091Z,74219.38
2022-12-27T06:40:54.298Z,74219.38
2022-12-27T06:41:27.035Z,74219.38
2022-12-27T06:42:01.919Z,74223.38
2022-12-27T06:42:34.143Z,74223.38
2022-12-27T06:43:06.358Z,74223.38
2022-12-27T06:43:42.051Z,74223.38
2022-12-27T06:44:14.355Z,74225.38
2022-12-27T06:44:46.576Z,74225.38
2022-12-27T06:45:21.433Z,74231.38
2022-12-27T06:45:56.684Z,74223.38
2022-12-27T06:46:29.055Z,74219.38
2022-12-27T06:47:04.011Z,74227.38
2022-12-27T06:47:36.590Z,74227.38
2022-12-27T06:48:11.412Z,74235.34
2022-12-27T06:48:46.671Z,74235.34
2022-12-27T06:49:18.915Z,74231.38
2022-12-27T06:49:53.734Z,74229.38
2022-12-27T06:50:25.963Z,74229.38
2022-12-27T06:50:58.475Z,74231.38
2022-12-27T06:51:33.553Z,74233.38
2022-12-27T06:52:06.215Z,74233.38
2022-12-27T06:52:41.029Z,74235.34
2022-12-27T06:53:13.292Z,74231.38
2022-12-27T06:53:45.527Z,74231.38
2022-12-27T06:54:20.362Z,74239.34
2022-12-27T06:54:52.571Z,74235.34
2022-12-27T06:55:24.817Z,74227.38
2022-12-27T06:55:59.678Z,74237.34
2022-12-27T06:56:31.893Z,74235.34
2022-12-27T06:57:04.164Z,74239.34
2022-12-27T06:57:39.031Z,74239.34
2022-12-27T06:58:12.947Z,74239.34
2022-12-27T06:58:45.520Z,74239.34
2022-12-27T06:59:21.268Z,74235.34
2022-12-27T06:59:54.295Z,74245.34
2022-12-27T07:00:26.606Z,74241.34
2022-12-27T07:01:02.111Z,74245.34
2022-12-27T07:01:34.472Z,74241.34
2022-12-27T07:02:07.230Z,74243.34
2022-12-27T07:02:42.504Z,74243.34
2022-12-27T07:03:17.496Z,74243.34
2022-12-27T07:03:50.697Z,74239.34
2022-12-27T07:04:25.508Z,74251.34
2022-12-27T07:04:57.736Z,74251.34
2022-12-27T07:05:30.127Z,74243.34
2022-12-27T07:06:06.443Z,74243.34
2022-12-27T07:06:38.908Z,74247.34
2022-12-27T07:07:15.627Z,74251.34
2022-12-27T07:07:53.476Z,74253.31
2022-12-27T07:08:25.760Z,74251.34
2022-12-27T07:08:58.988Z,74251.34
2022-12-27T07:09:33.850Z,74253.31
2022-12-27T07:10:07.486Z,74243.34
2022-12-27T07:10:39.728Z,74251.34
2022-12-27T07:11:13.008Z,74257.31
2022-12-27T07:11:48.683Z,74251.34
2022-12-27T07:12:20.896Z,74259.31
2022-12-27T07:12:53.203Z,74259.31
2022-12-27T07:13:28.016Z,74261.31
2022-12-27T07:14:00.243Z,74263.31
2022-12-27T07:14:32.481Z,74261.31
2022-12-27T07:15:08.491Z,74259.31
2022-12-27T07:15:40.718Z,74267.31
2022-12-27T07:16:14.508Z,74263.31
2022-12-27T07:16:52.062Z,74267.31
2022-12-27T07:17:24.367Z,74263.31
2022-12-27T07:17:56.653Z,74263.31
2022-12-27T07:18:34.153Z,74263.31
2022-12-27T07:19:06.396Z,74267.31
2022-12-27T07:19:38.630Z,74267.31
2022-12-27T07:20:14.566Z,74263.31